Time;durP1;ratioP1;P1;durP2;ratioP2;P2;SDS_P1;SDS_P2;PMS_P1;PMS_P2;Temp;Humidity;BMP_temperature;BMP_pressure;BME280_temperature;BME280_humidity;BME280_pressure;Samples;Min_cycle;Max_cycle;Signal;HPM_P1;HPM_P2
2021/05/16 00:00:30;;;;;;;0.88;0.60;;;;;;;7.18;86.80;94856.31;5087781;28;20143;-44
2021/05/16 00:02:57;;;;;;;2.15;0.77;;;;;;;7.18;85.93;94859.00;5088870;28;20517;-42
2021/05/16 00:05:26;;;;;;;1.15;0.60;;;;;;;7.24;85.25;94852.25;5088900;28;20052;-42
2021/05/16 00:07:54;;;;;;;0.88;0.60;;;;;;;7.28;86.72;94857.75;5102903;28;20251;-42
2021/05/16 00:10:24;;;;;;;2.50;0.60;;;;;;;7.24;84.81;94857.63;5088512;28;20501;-42
2021/05/16 00:12:52;;;;;;;0.70;0.57;;;;;;;7.16;84.78;94858.53;5088382;28;20045;-43
2021/05/16 00:15:21;;;;;;;1.08;0.70;;;;;;;7.12;85.24;94860.34;5088361;28;20055;-43
2021/05/16 00:17:49;;;;;;;0.52;0.47;;;;;;;7.09;84.75;94858.31;5088064;28;20086;-43
2021/05/16 00:20:20;;;;;;;1.77;0.50;;;;;;;7.11;84.88;94868.72;5087021;28;20436;-42
2021/05/16 00:22:47;;;;;;;1.13;0.70;;;;;;;7.06;84.70;94864.38;5084371;23;20426;-49
2021/05/16 00:25:17;;;;;;;0.98;0.70;;;;;;;7.11;85.01;94876.78;5039892;28;20050;-47
2021/05/16 00:27:45;;;;;;;2.15;0.60;;;;;;;7.00;85.47;94871.06;5009624;28;20137;-46
2021/05/16 00:30:15;;;;;;;0.55;0.40;;;;;;;7.04;84.39;94880.03;5026880;28;20554;-46
2021/05/16 00:32:43;;;;;;;1.15;0.40;;;;;;;7.06;84.88;94880.50;5024379;28;20065;-48
2021/05/16 00:35:14;;;;;;;1.15;0.47;;;;;;;7.05;84.86;94880.81;5013802;28;20072;-49
2021/05/16 00:37:42;;;;;;;1.40;0.50;;;;;;;6.96;84.67;94875.56;5012864;28;20053;-47
2021/05/16 00:40:09;;;;;;;1.73;0.50;;;;;;;7.03;84.51;94873.09;5014356;28;20499;-46
2021/05/16 00:42:36;;;;;;;0.63;0.40;;;;;;;6.96;84.61;94876.34;5020582;28;20046;-46
2021/05/16 00:45:07;;;;;;;0.77;0.55;;;;;;;6.91;83.62;94870.38;5026145;28;20500;-48
2021/05/16 00:47:36;;;;;;;0.47;0.45;;;;;;;6.89;83.90;94875.31;5014222;28;20061;-45
2021/05/16 00:50:09;;;;;;;1.40;0.40;;;;;;;6.93;83.56;94873.53;5029387;28;20527;-46
2021/05/16 00:52:38;;;;;;;1.55;0.35;;;;;;;6.88;83.65;94871.84;5033503;28;20136;-46
2021/05/16 00:55:08;;;;;;;0.80;0.40;;;;;;;6.91;83.25;94867.69;5034232;28;20058;-45
2021/05/16 00:57:36;;;;;;;0.57;0.30;;;;;;;6.91;83.37;94865.78;5030895;28;20049;-45
2021/05/16 01:00:07;;;;;;;0.43;0.40;;;;;;;6.84;83.22;94864.78;5029500;28;20054;-47
2021/05/16 01:02:35;;;;;;;0.73;0.40;;;;;;;6.85;84.48;94860.97;5013892;28;20085;-45
2021/05/16 01:05:04;;;;;;;1.05;0.43;;;;;;;6.80;83.50;94867.34;5013812;28;20053;-50
2021/05/16 01:07:31;;;;;;;1.52;0.55;;;;;;;6.82;83.35;94869.69;5012946;28;20057;-47
2021/05/16 01:09:58;;;;;;;0.90;0.30;;;;;;;6.82;82.65;94870.47;5012946;28;20054;-45
2021/05/16 01:12:32;;;;;;;1.48;0.40;;;;;;;6.87;82.51;94872.19;5012587;28;20507;-47
2021/05/16 01:15:03;;;;;;;0.68;0.40;;;;;;;6.78;83.02;94883.03;5012966;28;20136;-44
2021/05/16 01:17:30;;;;;;;0.70;0.50;;;;;;;6.83;82.72;94874.75;5019927;28;20053;-47
2021/05/16 01:19:57;;;;;;;4.25;1.23;;;;;;;6.78;82.48;94878.44;5025255;28;20077;-47
2021/05/16 01:22:26;;;;;;;0.70;0.50;;;;;;;6.84;83.10;94875.53;5033434;28;20072;-53
2021/05/16 01:24:53;;;;;;;0.50;0.50;;;;;;;6.88;82.92;94868.38;5033416;28;20049;-48
2021/05/16 01:27:20;;;;;;;2.63;0.63;;;;;;;6.90;82.71;94876.91;5032739;28;20130;-47
2021/05/16 01:29:47;;;;;;;1.05;0.40;;;;;;;6.86;81.88;94873.28;5028694;28;20050;-46
2021/05/16 01:32:14;;;;;;;2.92;0.50;;;;;;;6.87;81.94;94886.41;5013526;28;20104;-45
2021/05/16 01:34:42;;;;;;;5.03;0.90;;;;;;;6.83;81.82;94874.75;5012473;28;20058;-47
2021/05/16 01:37:10;;;;;;;2.17;0.82;;;;;;;6.96;81.48;94870.19;5028544;28;20064;-45
2021/05/16 01:39:39;;;;;;;1.92;0.80;;;;;;;6.87;81.20;94877.56;5012075;28;20057;-45
2021/05/16 01:42:08;;;;;;;0.45;0.40;;;;;;;6.78;81.72;94878.44;5013200;28;20042;-44
2021/05/16 01:44:36;;;;;;;2.72;0.60;;;;;;;6.77;82.57;94876.09;5027985;28;20046;-44
2021/05/16 01:47:03;;;;;;;1.20;0.55;;;;;;;6.84;81.36;94867.47;5020715;28;20379;-47
2021/05/16 01:49:42;;;;;;;1.75;0.55;;;;;;;6.85;81.50;94871.72;5033066;28;20481;-44
2021/05/16 01:52:10;;;;;;;0.95;0.40;;;;;;;6.84;80.88;94875.53;5032870;28;20119;-46
2021/05/16 01:54:38;;;;;;;1.85;0.45;;;;;;;6.90;81.58;94864.22;5032541;28;20475;-45
2021/05/16 01:57:07;;;;;;;2.97;0.60;;;;;;;6.85;81.29;94866.34;5032872;28;20446;-46
2021/05/16 01:59:37;;;;;;;1.40;0.57;;;;;;;6.73;81.61;94865.22;5032516;28;20466;-45
2021/05/16 02:02:05;;;;;;;0.77;0.43;;;;;;;6.74;81.65;94866.78;5031533;28;20045;-45
2021/05/16 02:04:34;;;;;;;0.98;0.57;;;;;;;6.71;81.56;94869.34;5031681;28;20049;-46
2021/05/16 02:07:01;;;;;;;0.57;0.50;;;;;;;6.79;81.37;94858.50;5028266;28;20436;-46
2021/05/16 02:09:33;;;;;;;2.17;0.70;;;;;;;6.86;82.40;94859.84;5028230;28;20049;-46
2021/05/16 02:12:02;;;;;;;2.78;0.40;;;;;;;6.81;81.32;94862.75;5011875;28;20390;-46
2021/05/16 02:14:32;;;;;;;1.50;0.60;;;;;;;6.72;81.63;94862.84;5027940;28;20057;-46
2021/05/16 02:17:02;;;;;;;0.93;0.50;;;;;;;6.61;82.43;94862.50;5011784;28;20100;-44
2021/05/16 02:19:29;;;;;;;0.40;0.40;;;;;;;6.56;82.12;94860.00;5027600;28;20061;-44
2021/05/16 02:21:57;;;;;;;2.13;0.57;;;;;;;6.64;82.59;94863.75;5028053;28;20414;-43
2021/05/16 02:24:28;;;;;;;4.15;1.30;;;;;;;6.69;82.86;94863.50;5027056;28;20585;-43
2021/05/16 02:27:05;;;;;;;3.13;0.70;;;;;;;6.71;83.39;94867.44;5011972;28;20046;-46
2021/05/16 02:29:48;;;;;;;;;;;;;;;6.78;80.73;94864.22;5013866;28;20530;-44
2021/05/16 02:32:17;;;;;;;2.90;0.63;;;;;;;6.69;81.48;94864.28;5027612;28;20463;-44
2021/05/16 02:34:46;;;;;;;1.10;0.50;;;;;;;6.63;81.18;94864.84;5010862;28;20092;-45
2021/05/16 02:37:21;;;;;;;1.27;0.70;;;;;;;6.73;83.00;94865.22;5027808;28;20073;-47
2021/05/16 02:39:48;;;;;;;1.95;0.70;;;;;;;6.78;80.82;94866.91;5012280;28;20069;-45
2021/05/16 02:42:15;;;;;;;1.80;0.60;;;;;;;6.67;80.92;94863.09;5011914;28;20045;-47
2021/05/16 02:44:42;;;;;;;1.50;0.60;;;;;;;6.68;80.95;94864.66;5011174;28;20526;-45
2021/05/16 02:47:10;;;;;;;1.60;0.75;;;;;;;6.62;80.61;94858.69;5031590;28;20076;-46
2021/05/16 02:49:37;;;;;;;2.20;0.60;;;;;;;6.59;80.58;94864.72;5030071;28;20045;-46
2021/05/16 02:52:04;;;;;;;1.85;0.50;;;;;;;6.64;80.53;94856.47;5032080;28;20137;-46
2021/05/16 02:54:34;;;;;;;1.95;0.60;;;;;;;6.63;80.13;94862.97;5030531;28;20053;-47
2021/05/16 02:57:04;;;;;;;2.03;0.60;;;;;;;6.62;81.71;94865.97;5029699;28;20057;-45
2021/05/16 02:59:31;;;;;;;2.08;0.52;;;;;;;6.76;79.91;94861.09;5029978;28;20084;-46
2021/05/16 03:01:59;;;;;;;1.75;0.50;;;;;;;6.65;79.39;94862.63;5030514;28;20092;-45
2021/05/16 03:04:27;;;;;;;2.28;0.55;;;;;;;6.66;79.53;94864.19;5030311;28;20053;-50
2021/05/16 03:06:55;;;;;;;1.50;0.43;;;;;;;6.78;80.52;94870.38;5031016;28;20060;-46
2021/05/16 03:09:22;;;;;;;2.35;0.40;;;;;;;6.76;79.79;94858.41;5010784;28;20419;-45
2021/05/16 03:11:51;;;;;;;2.53;0.57;;;;;;;6.75;81.21;94867.56;5010656;28;20077;-48
2021/05/16 03:14:18;;;;;;;2.05;0.70;;;;;;;6.81;80.93;94860.06;5012144;28;20407;-45
2021/05/16 03:16:45;;;;;;;1.52;0.50;;;;;;;6.76;80.50;94861.88;5019375;28;20049;-46
2021/05/16 03:19:13;;;;;;;1.27;0.65;;;;;;;6.72;80.45;94868.22;5028848;28;20475;-48
2021/05/16 03:21:44;;;;;;;2.83;0.60;;;;;;;6.88;80.07;94868.38;5041737;28;20503;-47
2021/05/16 03:24:12;;;;;;;0.82;0.70;;;;;;;7.10;77.82;94867.94;5031181;28;20049;-49
2021/05/16 03:26:41;;;;;;;1.63;0.60;;;;;;;7.03;78.55;94881.16;5030783;28;20111;-48
2021/05/16 03:29:09;;;;;;;3.53;0.63;;;;;;;7.20;77.93;94883.63;5031002;28;20061;-48
2021/05/16 03:31:36;;;;;;;1.88;0.65;;;;;;;7.31;76.82;94877.81;5031428;28;20518;-47
2021/05/16 03:34:05;;;;;;;2.90;0.60;;;;;;;7.06;77.54;94877.81;5031083;28;20049;-46
2021/05/16 03:36:32;;;;;;;1.75;0.70;;;;;;;7.01;78.17;94880.72;5045871;28;20054;-48
2021/05/16 03:38:59;;;;;;;0.80;0.52;;;;;;;7.18;77.02;94875.13;5031182;28;20045;-46
2021/05/16 03:41:26;;;;;;;3.20;1.63;;;;;;;7.15;78.58;94875.81;5031184;28;20053;-46
2021/05/16 03:43:53;;;;;;;1.33;0.50;;;;;;;7.47;76.43;94874.13;5031681;28;20053;-47
2021/05/16 03:46:20;;;;;;;1.17;0.60;;;;;;;7.29;78.38;94878.16;5030884;28;20057;-45
2021/05/16 03:48:47;;;;;;;0.82;0.50;;;;;;;7.72;77.84;94885.63;5031294;28;20049;-45
2021/05/16 03:51:15;;;;;;;1.88;0.63;;;;;;;7.47;80.38;94873.31;5015491;28;20045;-45
2021/05/16 03:53:42;;;;;;;1.33;0.57;;;;;;;7.75;78.53;94873.41;5031194;28;20216;-49
2021/05/16 03:56:09;;;;;;;3.15;0.75;;;;;;;8.01;77.67;94875.69;5042632;28;20045;-45
2021/05/16 03:58:37;;;;;;;1.65;0.60;;;;;;;8.05;76.68;94876.56;5021149;28;20056;-46
2021/05/16 04:01:04;;;;;;;1.50;0.60;;;;;;;7.58;80.65;94863.66;5030936;28;20073;-45
2021/05/16 04:03:33;;;;;;;1.80;0.65;;;;;;;7.54;81.56;94870.84;5031006;28;20068;-44
2021/05/16 04:06:00;;;;;;;2.97;0.60;;;;;;;7.40;78.17;94865.03;5031017;28;20095;-45
2021/05/16 04:08:28;;;;;;;0.80;0.60;;;;;;;7.53;78.76;94866.56;5031168;28;20058;-45
2021/05/16 04:10:55;;;;;;;2.30;0.70;;;;;;;7.81;79.27;94863.19;5034790;28;20057;-46
2021/05/16 04:13:23;;;;;;;2.92;0.77;;;;;;;7.55;77.04;94872.41;5049911;28;20041;-45
2021/05/16 04:15:50;;;;;;;2.55;0.60;;;;;;;7.40;76.08;94873.88;5033947;28;20049;-45
2021/05/16 04:18:17;;;;;;;1.88;0.77;;;;;;;7.48;78.21;94870.28;5032730;28;20041;-46
2021/05/16 04:20:44;;;;;;;2.58;0.88;;;;;;;7.45;77.24;94880.94;5026293;28;20119;-47
2021/05/16 04:23:11;;;;;;;3.13;0.70;;;;;;;7.46;77.75;94885.97;5034007;28;20046;-45
2021/05/16 04:25:38;;;;;;;1.92;0.70;;;;;;;7.40;77.69;94881.94;5034196;28;20053;-47
2021/05/16 04:28:05;;;;;;;1.73;0.60;;;;;;;7.34;76.18;94874.44;5027449;28;20609;-45
2021/05/16 04:30:32;;;;;;;1.48;0.45;;;;;;;7.44;77.66;94879.38;5014745;28;20076;-45
2021/05/16 04:32:59;;;;;;;2.70;0.68;;;;;;;7.33;76.98;94886.34;5014350;28;20052;-44
2021/05/16 04:35:26;;;;;;;4.05;0.90;;;;;;;7.29;77.37;94883.53;5014543;28;20050;-45
2021/05/16 04:37:53;;;;;;;2.28;0.80;;;;;;;7.23;77.31;94888.34;5028721;28;20054;-45
2021/05/16 04:40:20;;;;;;;1.85;0.90;;;;;;;7.23;77.90;94888.34;5034111;28;20052;-46
2021/05/16 04:42:49;;;;;;;2.40;0.70;;;;;;;7.33;77.48;94886.34;5033849;28;20080;-44
2021/05/16 04:45:16;;;;;;;2.70;0.80;;;;;;;7.36;77.71;94883.75;5032509;28;20103;-43
2021/05/16 04:47:44;;;;;;;2.40;0.70;;;;;;;7.42;77.19;94884.31;5033701;28;20561;-44
2021/05/16 04:50:13;;;;;;;2.83;0.60;;;;;;;7.47;78.32;94884.06;5035137;28;20058;-44
2021/05/16 04:52:41;;;;;;;4.38;0.70;;;;;;;7.56;78.08;94884.75;5033898;28;20077;-47
2021/05/16 04:55:08;;;;;;;3.00;0.70;;;;;;;7.53;76.82;94890.03;5032347;28;20060;-44
2021/05/16 04:57:35;;;;;;;3.65;0.75;;;;;;;7.57;77.02;94894.41;5032383;28;20075;-44
2021/05/16 05:00:04;;;;;;;2.78;0.88;;;;;;;7.73;78.80;94900.66;5014203;28;20518;-44
2021/05/16 05:02:33;;;;;;;2.75;0.80;;;;;;;7.91;77.11;94895.81;5013399;28;20785;-44
2021/05/16 05:05:00;;;;;;;3.78;1.00;;;;;;;8.03;75.92;94894.22;5014088;28;20503;-45
2021/05/16 05:07:28;;;;;;;2.13;0.60;;;;;;;8.09;76.72;94899.03;5016441;28;20060;-48
2021/05/16 05:09:55;;;;;;;2.25;0.70;;;;;;;8.42;76.10;94892.66;5033683;28;20049;-46
2021/05/16 05:12:22;;;;;;;2.15;0.80;;;;;;;8.25;75.67;94895.59;5033562;28;20045;-45
2021/05/16 05:14:49;;;;;;;3.58;0.90;;;;;;;8.17;74.31;94895.41;5032495;28;20076;-44
2021/05/16 05:17:16;;;;;;;1.30;0.82;;;;;;;8.33;75.74;94900.06;5031293;28;20053;-45
2021/05/16 05:19:43;;;;;;;3.60;1.30;;;;;;;8.23;75.96;94901.34;5027012;28;20569;-44
2021/05/16 05:22:10;;;;;;;2.92;0.95;;;;;;;8.36;75.84;94894.00;5032963;28;20054;-47
2021/05/16 05:24:38;;;;;;;2.28;0.82;;;;;;;8.51;74.00;94895.97;5033254;28;20045;-46
2021/05/16 05:27:05;;;;;;;3.05;0.80;;;;;;;8.40;75.32;94892.97;5032697;28;20091;-45
2021/05/16 05:29:32;;;;;;;4.07;1.00;;;;;;;8.62;74.61;94878.16;5033214;28;20049;-45
2021/05/16 05:31:59;;;;;;;5.30;1.35;;;;;;;8.56;73.75;94876.84;5048571;28;20053;-47
2021/05/16 05:34:27;;;;;;;3.20;0.88;;;;;;;8.58;75.23;94877.31;5033416;28;20045;-45
2021/05/16 05:36:55;;;;;;;4.43;1.00;;;;;;;8.61;74.50;94873.09;5032586;28;20136;-45
2021/05/16 05:39:24;;;;;;;1.73;0.80;;;;;;;8.65;75.05;94874.00;5033184;28;20499;-48
2021/05/16 05:41:51;;;;;;;2.97;1.00;;;;;;;8.75;74.27;94888.91;5031998;28;20053;-47
2021/05/16 05:44:19;;;;;;;2.78;1.17;;;;;;;8.73;74.63;94886.53;5032979;28;20054;-46
2021/05/16 05:46:46;;;;;;;5.68;1.10;;;;;;;8.84;73.76;94886.84;5032197;28;20053;-46
2021/05/16 05:49:13;;;;;;;2.90;0.98;;;;;;;8.80;73.89;94884.00;5032893;28;20100;-46
2021/05/16 05:51:40;;;;;;;4.10;1.23;;;;;;;8.76;72.78;94880.44;5031714;28;20099;-48
2021/05/16 05:54:07;;;;;;;3.65;1.08;;;;;;;8.80;74.04;94888.63;5032333;28;20076;-47
2021/05/16 05:56:36;;;;;;;4.60;1.30;;;;;;;8.97;73.95;94891.03;5025348;28;20562;-46
2021/05/16 05:59:04;;;;;;;4.18;0.90;;;;;;;8.79;72.18;94889.78;5026425;28;20053;-46
2021/05/16 06:01:31;;;;;;;3.72;1.30;;;;;;;8.81;73.58;94895.63;5033104;28;20132;-47
2021/05/16 06:03:58;;;;;;;4.13;1.15;;;;;;;8.90;74.09;94896.22;5047906;28;20054;-47
2021/05/16 06:06:25;;;;;;;3.90;0.90;;;;;;;9.06;72.10;94893.53;5029867;28;20106;-49
2021/05/16 06:08:52;;;;;;;3.45;1.08;;;;;;;9.09;71.49;94893.63;5024872;28;20053;-48
2021/05/16 06:11:19;;;;;;;5.90;1.05;;;;;;;9.00;72.24;94898.41;5012670;28;20437;-46
2021/05/16 06:13:47;;;;;;;4.38;1.10;;;;;;;9.01;71.21;94883.78;5012973;28;20053;-46
2021/05/16 06:16:15;;;;;;;3.35;0.95;;;;;;;9.11;71.29;94890.59;5031371;28;20141;-46
2021/05/16 06:18:42;;;;;;;4.25;1.05;;;;;;;9.20;71.15;94893.91;5033746;28;20050;-49
2021/05/16 06:21:11;;;;;;;4.45;1.10;;;;;;;9.41;71.13;94892.84;5017001;28;20057;-46
2021/05/16 06:24:02;;;;;;;3.45;1.13;;;;;;;9.33;70.59;94889.97;5057200;23;20124;-47
2021/05/16 06:26:36;;;;;;;4.72;1.10;;;;;;;9.29;70.60;94904.50;5066067;28;20048;-47
2021/05/16 06:29:07;;;;;;;3.38;0.98;;;;;;;9.52;71.63;94894.66;5056005;28;20049;-46
2021/05/16 06:31:34;;;;;;;4.47;1.27;;;;;;;9.84;71.84;94894.59;5050448;28;20049;-47
2021/05/16 06:34:02;;;;;;;3.25;1.00;;;;;;;9.88;69.89;94903.56;5046400;28;20041;-47
2021/05/16 06:36:29;;;;;;;2.83;1.00;;;;;;;9.95;69.30;94901.03;5038415;28;20076;-46
2021/05/16 06:38:56;;;;;;;5.57;1.58;;;;;;;9.76;71.25;94900.97;5051147;28;20140;-47
2021/05/16 06:41:26;;;;;;;3.72;1.02;;;;;;;9.65;69.21;94905.34;5051032;28;20067;-47
2021/05/16 06:43:53;;;;;;;5.40;1.23;;;;;;;9.86;69.28;94896.94;5050179;28;20045;-49
2021/05/16 06:46:20;;;;;;;2.78;1.00;;;;;;;9.77;69.15;94899.84;5050669;28;20106;-49
2021/05/16 06:48:48;;;;;;;3.75;1.17;;;;;;;9.72;69.16;94905.53;5050882;28;20224;-47
2021/05/16 06:51:14;;;;;;;2.28;0.90;;;;;;;9.82;69.42;94902.28;5050738;28;20045;-48
2021/05/16 06:53:42;;;;;;;6.13;1.10;;;;;;;9.88;68.43;94903.56;5038704;28;20045;-47
2021/05/16 06:56:12;;;;;;;5.80;1.20;;;;;;;10.03;68.82;94912.75;5045959;28;20115;-49
2021/05/16 06:58:39;;;;;;;4.85;1.23;;;;;;;10.15;70.16;94901.06;5040119;28;20067;-49
2021/05/16 07:01:06;;;;;;;5.55;1.25;;;;;;;10.41;67.17;94909.34;5065968;28;20052;-46
2021/05/16 07:03:35;;;;;;;4.57;0.98;;;;;;;10.29;67.08;94898.66;5050550;28;20144;-47
2021/05/16 07:06:02;;;;;;;3.63;1.30;;;;;;;10.39;66.84;94900.78;5050621;28;20053;-45
2021/05/16 07:08:29;;;;;;;4.20;1.25;;;;;;;10.23;66.08;94902.75;5035376;28;20067;-48
2021/05/16 07:10:56;;;;;;;3.90;1.30;;;;;;;10.49;67.09;94902.16;5045289;28;20053;-44
2021/05/16 07:13:23;;;;;;;6.45;1.30;;;;;;;10.39;66.58;94900.78;5039416;28;20056;-49
2021/05/16 07:15:50;;;;;;;4.32;1.30;;;;;;;10.37;65.93;94897.69;5047472;28;20053;-49
2021/05/16 07:18:18;;;;;;;3.90;0.93;;;;;;;10.63;64.80;94893.53;5042907;28;20068;-49
2021/05/16 07:20:45;;;;;;;8.60;1.10;;;;;;;10.77;64.23;94891.09;5038464;28;20055;-46
2021/05/16 07:23:12;;;;;;;4.80;1.08;;;;;;;10.89;64.24;94893.66;5032348;28;20044;-48
2021/05/16 07:25:39;;;;;;;6.38;1.27;;;;;;;10.76;62.90;94889.53;5043214;28;20048;-48
2021/05/16 07:28:06;;;;;;;3.20;1.00;;;;;;;10.72;63.01;94894.88;5044033;28;20534;-48
2021/05/16 07:30:34;;;;;;;2.88;1.00;;;;;;;10.90;63.64;94899.84;5043054;28;20053;-46
2021/05/16 07:33:01;;;;;;;4.25;1.13;;;;;;;11.07;63.20;94890.47;5035949;28;20178;-45
2021/05/16 07:35:29;;;;;;;3.83;1.25;;;;;;;11.23;63.33;94894.59;5049491;28;20045;-47
2021/05/16 07:37:56;;;;;;;4.60;1.95;;;;;;;11.48;63.35;94888.06;5048209;28;20064;-47
2021/05/16 07:40:23;;;;;;;5.40;1.20;;;;;;;11.29;61.63;94886.97;5041450;28;20135;-47
2021/05/16 07:42:50;;;;;;;2.13;0.75;;;;;;;11.27;61.85;94889.25;5046271;28;20501;-47
2021/05/16 07:45:19;;;;;;;6.00;1.40;;;;;;;11.37;63.43;94885.94;5050802;28;20057;-47
2021/05/16 07:47:46;;;;;;;6.18;1.33;;;;;;;11.17;62.29;94887.16;5049744;28;20414;-45
2021/05/16 07:50:14;;;;;;;8.65;1.45;;;;;;;11.18;62.03;94892.22;5047408;28;20053;-47
2021/05/16 07:52:41;;;;;;;6.22;1.98;;;;;;;11.33;62.61;94884.31;5042448;28;20115;-46
2021/05/16 07:55:09;;;;;;;7.35;1.75;;;;;;;11.68;60.63;94879.44;5052418;28;20087;-47
2021/05/16 07:57:36;;;;;;;3.42;1.17;;;;;;;11.83;59.53;94877.75;5036109;28;20075;-48
2021/05/16 08:00:10;;;;;;;4.60;1.10;;;;;;;12.06;58.46;94876.94;5041894;28;20067;-44
2021/05/16 08:02:42;;;;;;;3.20;1.10;;;;;;;12.12;58.31;94889.78;5052421;28;20056;-47
2021/05/16 08:05:11;;;;;;;7.55;1.55;;;;;;;12.02;58.74;94881.50;5038655;28;20132;-47
2021/05/16 08:07:39;;;;;;;4.22;1.02;;;;;;;12.00;58.40;94881.09;5049876;28;20502;-49
2021/05/16 08:10:07;;;;;;;4.85;0.98;;;;;;;11.92;59.28;94882.91;5036079;28;20049;-45
2021/05/16 08:12:34;;;;;;;5.28;1.15;;;;;;;12.15;59.22;94880.13;5048037;28;20076;-47
2021/05/16 08:15:02;;;;;;;4.20;1.27;;;;;;;12.12;58.87;94886.28;5041345;28;20386;-46
2021/05/16 08:17:30;;;;;;;3.55;0.90;;;;;;;12.01;58.33;94879.94;5051900;28;20506;-42
2021/05/16 08:19:58;;;;;;;3.67;1.00;;;;;;;12.27;57.80;94885.31;5041055;28;20045;-44
2021/05/16 08:22:25;;;;;;;3.58;0.80;;;;;;;12.55;57.12;94867.84;5071148;28;20053;-45
2021/05/16 08:24:52;;;;;;;3.08;0.73;;;;;;;12.85;56.11;94873.97;5056556;28;20460;-42
2021/05/16 08:27:19;;;;;;;4.82;1.20;;;;;;;12.98;55.35;94879.91;5056675;28;20134;-48
2021/05/16 08:29:50;;;;;;;4.70;0.90;;;;;;;13.40;54.96;94873.34;5035713;28;20052;-42
2021/05/16 08:32:18;;;;;;;4.28;1.10;;;;;;;13.02;54.09;94883.44;5037337;28;20053;-45
2021/05/16 08:34:46;;;;;;;2.50;0.90;;;;;;;13.10;53.83;94873.44;5036644;28;20207;-48
2021/05/16 08:37:14;;;;;;;3.38;1.00;;;;;;;12.71;55.13;94881.97;5039348;28;20103;-49
2021/05/16 08:39:42;;;;;;;3.65;1.35;;;;;;;12.74;54.83;94883.13;5056158;28;20140;-49
2021/05/16 08:42:10;;;;;;;2.42;0.88;;;;;;;12.80;55.24;94879.75;5055986;28;20049;-49
2021/05/16 08:44:37;;;;;;;3.10;0.95;;;;;;;12.80;54.32;94879.75;5055392;28;20071;-45
2021/05/16 08:47:06;;;;;;;4.63;0.95;;;;;;;12.85;54.03;94884.81;5053968;28;20068;-45
2021/05/16 08:49:34;;;;;;;4.78;0.93;;;;;;;12.78;54.93;94882.03;5052686;28;20506;-46
2021/05/16 08:52:02;;;;;;;3.85;1.10;;;;;;;12.75;54.15;94882.00;5053665;28;20145;-43
2021/05/16 08:54:30;;;;;;;3.65;0.80;;;;;;;12.90;54.18;94880.97;5052657;28;20079;-44
2021/05/16 08:56:59;;;;;;;3.13;0.95;;;;;;;12.68;54.00;94885.44;5053135;28;20045;-47
2021/05/16 08:59:27;;;;;;;2.88;0.85;;;;;;;12.53;53.94;94878.25;5037073;28;20384;-47
2021/05/16 09:01:57;;;;;;;3.65;1.02;;;;;;;12.57;55.05;94885.28;5033648;28;20057;-45
2021/05/16 09:04:37;;;;;;;5.43;1.10;;;;;;;12.95;53.19;94877.16;5033340;28;20132;-47
2021/05/16 09:07:06;;;;;;;6.18;1.63;;;;;;;12.89;54.28;94890.28;5051585;28;20048;-43
2021/05/16 09:09:36;;;;;;;5.60;1.00;;;;;;;12.91;54.29;94879.06;5053790;28;20091;-45
2021/05/16 09:12:07;;;;;;;2.78;0.80;;;;;;;13.12;53.54;94873.84;5053226;28;20414;-44
2021/05/16 09:14:50;;;;;;;2.55;0.80;;;;;;;13.35;52.79;94881.03;5053405;28;20053;-43
2021/05/16 09:17:29;;;;;;;3.58;0.85;;;;;;;13.34;53.88;94872.13;5052524;28;20056;-43
2021/05/16 09:20:08;;;;;;;4.13;1.15;;;;;;;13.44;52.56;94881.50;5053284;28;20049;-48
2021/05/16 09:22:41;;;;;;;5.47;1.30;;;;;;;13.24;53.24;94883.66;5053097;28;20056;-51
2021/05/16 09:25:09;;;;;;;2.58;1.00;;;;;;;13.02;53.82;94877.22;5052867;28;20048;-46
2021/05/16 09:27:38;;;;;;;4.18;1.02;;;;;;;13.32;53.54;94880.66;5039194;28;20088;-46
2021/05/16 09:30:17;;;;;;;4.30;1.08;;;;;;;13.38;52.80;94881.06;5053223;28;20053;-46
2021/05/16 09:32:47;;;;;;;4.15;1.50;;;;;;;13.57;52.54;94871.91;5052828;28;20057;-46
2021/05/16 09:35:14;;;;;;;5.57;0.95;;;;;;;13.62;51.05;94871.56;5068053;28;20053;-43
2021/05/16 09:38:15;;;;;;;4.78;1.00;;;;;;;13.74;50.91;94867.75;5051801;28;20060;-46
2021/05/16 09:40:48;;;;;;;6.03;1.00;;;;;;;13.61;49.99;94866.50;5030000;28;20052;-49
2021/05/16 09:43:24;;;;;;;3.47;1.20;;;;;;;13.65;51.17;94865.38;5052636;28;20084;-45
2021/05/16 09:45:57;;;;;;;3.95;1.00;;;;;;;13.74;50.00;94862.31;5052687;28;20049;-49
2021/05/16 09:48:39;;;;;;;3.97;0.90;;;;;;;14.11;50.19;94856.72;5066159;28;20132;-44
2021/05/16 09:51:25;;;;;;;4.07;1.27;;;;;;;14.43;48.06;94853.38;5052377;28;20568;-43
2021/05/16 09:53:59;;;;;;;5.75;1.30;;;;;;;14.58;47.73;94865.88;5052225;28;20588;-44
2021/05/16 09:56:30;;;;;;;4.03;1.05;;;;;;;14.97;47.81;94851.59;5051623;28;20056;-43
2021/05/16 09:59:00;;;;;;;4.32;1.00;;;;;;;14.36;46.76;94850.59;5051992;28;20115;-43
2021/05/16 10:01:28;;;;;;;1.90;0.85;;;;;;;13.92;47.21;94851.56;5067421;28;20417;-45
2021/05/16 10:03:58;;;;;;;2.58;0.90;;;;;;;13.56;48.60;94848.63;5052106;28;20126;-46
2021/05/16 10:06:26;;;;;;;3.22;0.90;;;;;;;13.61;49.86;94844.75;5051186;28;20044;-45
2021/05/16 10:08:53;;;;;;;5.00;1.00;;;;;;;13.76;49.22;94846.41;5051750;28;20065;-46
2021/05/16 10:11:25;;;;;;;2.88;0.98;;;;;;;14.08;49.03;94845.84;5050757;28;20136;-45
2021/05/16 10:14:20;;;;;;;3.63;1.00;;;;;;;14.03;47.15;94839.56;5052209;28;20474;-44
2021/05/16 10:16:49;;;;;;;4.40;1.00;;;;;;;14.56;47.00;94834.75;5052080;28;20056;-46
2021/05/16 10:19:18;;;;;;;4.07;1.00;;;;;;;14.28;45.88;94825.31;5051380;28;20159;-46
2021/05/16 10:22:00;;;;;;;4.35;1.15;;;;;;;14.35;46.99;94825.34;5067367;28;20049;-46
2021/05/16 10:24:36;;;;;;;4.22;1.13;;;;;;;14.73;46.70;94818.50;5051654;28;20071;-44
2021/05/16 10:27:42;;;;;;;2.65;0.93;;;;;;;14.56;47.41;94808.34;5051527;28;20472;-47
2021/05/16 10:30:14;;;;;;;4.47;1.23;;;;;;;14.77;45.60;94806.81;5027276;28;20046;-45
2021/05/16 10:32:51;;;;;;;5.22;1.63;;;;;;;14.51;45.30;94811.44;5032279;28;20065;-45
2021/05/16 10:35:19;;;;;;;2.67;0.80;;;;;;;14.18;46.72;94799.63;5032405;28;20521;-45
2021/05/16 10:37:54;;;;;;;3.13;0.90;;;;;;;14.29;47.12;94801.59;5046706;28;20048;-44
2021/05/16 10:40:35;;;;;;;5.75;1.10;;;;;;;14.62;47.76;94804.06;5051662;28;20402;-48
2021/05/16 10:43:05;;;;;;;4.00;1.55;;;;;;;14.56;45.68;94802.09;5051691;28;20437;-46
2021/05/16 10:45:38;;;;;;;3.72;1.20;;;;;;;14.71;46.12;94804.47;5051227;28;20049;-44
2021/05/16 10:48:08;;;;;;;;;;;;;;;15.02;45.00;94801.41;5051830;28;20114;-46
2021/05/16 10:50:46;;;;;;;4.32;0.95;;;;;;;14.75;42.90;94792.81;5051504;28;19921;-47
2021/05/16 10:53:19;;;;;;;2.70;1.10;;;;;;;14.48;45.15;94795.84;5051408;28;20083;-43
2021/05/16 10:56:08;;;;;;;5.10;1.38;;;;;;;14.96;44.49;94785.44;5051655;28;20154;-45
2021/05/16 10:58:42;;;;;;;4.72;1.00;;;;;;;14.61;43.68;94772.56;5050490;28;20117;-47
2021/05/16 11:01:12;;;;;;;4.63;1.00;;;;;;;14.77;43.34;94776.88;5051415;28;20049;-46
2021/05/16 11:03:57;;;;;;;2.95;0.90;;;;;;;14.96;43.04;94765.63;5051199;28;20053;-46
2021/05/16 11:06:46;;;;;;;2.92;1.00;;;;;;;14.83;43.28;94767.16;5050548;28;20037;-45
2021/05/16 11:09:14;;;;;;;3.70;1.13;;;;;;;14.67;44.17;94757.41;5051356;28;20694;-46
2021/05/16 11:11:54;;;;;;;4.88;0.93;;;;;;;14.89;43.04;94758.22;5050962;28;20122;-48
2021/05/16 11:14:27;;;;;;;2.78;1.08;;;;;;;15.23;43.50;94746.91;5050748;28;20057;-45
2021/05/16 11:17:00;;;;;;;4.20;1.13;;;;;;;15.10;44.00;94751.97;5050502;28;20061;-44
2021/05/16 11:19:29;;;;;;;2.95;0.90;;;;;;;14.96;42.57;94750.03;5050969;28;20061;-45
2021/05/16 11:21:57;;;;;;;3.10;1.00;;;;;;;15.04;42.81;94739.13;5050781;28;20095;-46
2021/05/16 11:24:39;;;;;;;3.72;1.00;;;;;;;15.59;40.72;94730.50;5050330;28;20057;-46
2021/05/16 11:27:33;;;;;;;4.28;1.33;;;;;;;15.94;39.62;94740.56;5050558;28;20107;-46
2021/05/16 11:30:01;;;;;;;;;;;;;;;15.63;41.04;94742.97;5030476;28;20060;-47
2021/05/16 11:32:30;;;;;;;2.80;1.00;;;;;;;16.01;37.64;94737.78;5030997;28;20475;-44
2021/05/16 11:35:12;;;;;;;3.42;0.80;;;;;;;16.54;36.94;94744.94;5030803;28;20477;-47
2021/05/16 11:37:40;;;;;;;2.50;0.63;;;;;;;16.56;37.23;94737.13;5041635;28;20133;-47
2021/05/16 11:40:13;;;;;;;3.40;1.35;;;;;;;16.90;37.25;94730.28;5050961;28;20087;-45
2021/05/16 11:42:42;;;;;;;3.00;1.20;;;;;;;16.69;37.89;94721.03;5050849;28;20048;-46
2021/05/16 11:45:10;;;;;;;2.40;0.85;;;;;;;16.71;37.68;94717.94;5051014;28;20073;-43
2021/05/16 11:47:42;;;;;;;3.37;0.90;;;;;;;17.18;36.61;94718.34;5050094;28;20091;-47
2021/05/16 11:50:11;;;;;;;2.47;0.85;;;;;;;16.90;37.00;94719.34;5050901;28;20499;-46